sensor_id;sensor_type;location;lat;lon;timestamp;P1;durP1;ratioP1;P2;durP2;ratioP2
21297;SDS011;10808;48.010;11.326;2023-09-19T00:01:19;4.13;;;1.40;;
21297;SDS011;10808;48.010;11.326;2023-09-19T00:03:46;4.50;;;1.30;;
21297;SDS011;10808;48.010;11.326;2023-09-19T00:06:12;5.03;;;1.20;;
21297;SDS011;10808;48.010;11.326;2023-09-19T00:08:41;1.98;;;1.10;;
21297;SDS011;10808;48.010;11.326;2023-09-19T00:11:10;4.97;;;2.00;;
21297;SDS011;10808;48.010;11.326;2023-09-19T00:13:36;2.20;;;1.10;;
21297;SDS011;10808;48.010;11.326;2023-09-19T00:16:07;3.80;;;1.30;;
21297;SDS011;10808;48.010;11.326;2023-09-19T00:18:36;3.65;;;1.42;;
21297;SDS011;10808;48.010;11.326;2023-09-19T00:21:03;3.22;;;1.30;;
21297;SDS011;10808;48.010;11.326;2023-09-19T00:23:33;3.47;;;1.38;;
21297;SDS011;10808;48.010;11.326;2023-09-19T00:25:59;4.35;;;1.35;;
21297;SDS011;10808;48.010;11.326;2023-09-19T00:28:26;3.83;;;1.40;;
21297;SDS011;10808;48.010;11.326;2023-09-19T00:30:53;4.88;;;1.40;;
21297;SDS011;10808;48.010;11.326;2023-09-19T00:33:22;2.85;;;1.30;;
21297;SDS011;10808;48.010;11.326;2023-09-19T00:35:50;2.30;;;1.30;;
21297;SDS011;10808;48.010;11.326;2023-09-19T00:38:17;3.28;;;1.25;;
21297;SDS011;10808;48.010;11.326;2023-09-19T00:40:47;3.90;;;1.42;;
21297;SDS011;10808;48.010;11.326;2023-09-19T00:43:13;4.55;;;1.20;;
21297;SDS011;10808;48.010;11.326;2023-09-19T00:45:44;6.00;;;1.40;;
21297;SDS011;10808;48.010;11.326;2023-09-19T00:48:13;2.65;;;1.30;;
21297;SDS011;10808;48.010;11.326;2023-09-19T00:50:40;4.40;;;1.40;;
21297;SDS011;10808;48.010;11.326;2023-09-19T00:53:09;4.40;;;1.50;;
21297;SDS011;10808;48.010;11.326;2023-09-19T00:55:40;3.13;;;1.40;;
21297;SDS011;10808;48.010;11.326;2023-09-19T00:58:08;3.90;;;1.40;;
21297;SDS011;10808;48.010;11.326;2023-09-19T01:00:35;2.22;;;1.20;;
21297;SDS011;10808;48.010;11.326;2023-09-19T01:03:02;3.42;;;1.55;;
21297;SDS011;10808;48.010;11.326;2023-09-19T01:05:28;3.20;;;1.38;;
21297;SDS011;10808;48.010;11.326;2023-09-19T01:07:57;4.20;;;1.30;;
21297;SDS011;10808;48.010;11.326;2023-09-19T01:10:24;2.83;;;1.13;;
21297;SDS011;10808;48.010;11.326;2023-09-19T01:18:11;3.33;;;1.38;;
21297;SDS011;10808;48.010;11.326;2023-09-19T01:23:23;1.83;;;1.10;;
21297;SDS011;10808;48.010;11.326;2023-09-19T01:31:40;3.85;;;1.20;;
21297;SDS011;10808;48.010;11.326;2023-09-19T01:34:10;2.00;;;1.25;;
21297;SDS011;10808;48.010;11.326;2023-09-19T01:36:36;3.00;;;1.20;;
21297;SDS011;10808;48.010;11.326;2023-09-19T01:39:12;4.60;;;1.30;;
21297;SDS011;10808;48.010;11.326;2023-09-19T01:42:02;2.00;;;1.30;;
21297;SDS011;10808;48.010;11.326;2023-09-19T01:45:07;1.88;;;1.20;;
21297;SDS011;10808;48.010;11.326;2023-09-19T01:47:40;1.60;;;1.20;;
21297;SDS011;10808;48.010;11.326;2023-09-19T01:50:38;2.40;;;1.10;;
21297;SDS011;10808;48.010;11.326;2023-09-19T01:56:01;4.30;;;1.50;;
21297;SDS011;10808;48.010;11.326;2023-09-19T01:58:34;1.98;;;1.20;;
21297;SDS011;10808;48.010;11.326;2023-09-19T02:01:16;3.97;;;1.33;;
21297;SDS011;10808;48.010;11.326;2023-09-19T02:03:46;3.10;;;1.30;;
21297;SDS011;10808;48.010;11.326;2023-09-19T02:06:14;1.88;;;1.27;;
21297;SDS011;10808;48.010;11.326;2023-09-19T02:08:41;2.15;;;1.40;;
21297;SDS011;10808;48.010;11.326;2023-09-19T02:11:07;3.30;;;1.30;;
21297;SDS011;10808;48.010;11.326;2023-09-19T02:13:33;2.85;;;1.30;;
21297;SDS011;10808;48.010;11.326;2023-09-19T02:15:59;2.00;;;1.20;;
21297;SDS011;10808;48.010;11.326;2023-09-19T02:18:25;4.83;;;1.20;;
21297;SDS011;10808;48.010;11.326;2023-09-19T02:20:53;3.67;;;1.27;;
21297;SDS011;10808;48.010;11.326;2023-09-19T02:23:20;2.22;;;1.20;;
21297;SDS011;10808;48.010;11.326;2023-09-19T02:25:55;2.08;;;1.10;;
21297;SDS011;10808;48.010;11.326;2023-09-19T02:28:27;4.20;;;1.30;;
21297;SDS011;10808;48.010;11.326;2023-09-19T02:30:57;3.42;;;1.10;;
21297;SDS011;10808;48.010;11.326;2023-09-19T02:33:24;3.42;;;1.40;;
21297;SDS011;10808;48.010;11.326;2023-09-19T02:35:54;1.48;;;1.27;;
21297;SDS011;10808;48.010;11.326;2023-09-19T02:38:24;2.55;;;1.30;;
21297;SDS011;10808;48.010;11.326;2023-09-19T02:40:51;3.25;;;1.30;;
21297;SDS011;10808;48.010;11.326;2023-09-19T02:43:18;2.03;;;1.30;;
21297;SDS011;10808;48.010;11.326;2023-09-19T02:45:47;3.37;;;1.33;;
21297;SDS011;10808;48.010;11.326;2023-09-19T02:48:21;3.85;;;1.38;;
21297;SDS011;10808;48.010;11.326;2023-09-19T02:50:50;2.08;;;1.30;;
21297;SDS011;10808;48.010;11.326;2023-09-19T02:53:17;4.65;;;1.40;;
21297;SDS011;10808;48.010;11.326;2023-09-19T02:55:44;2.60;;;1.30;;
21297;SDS011;10808;48.010;11.326;2023-09-19T02:58:11;2.90;;;1.40;;
21297;SDS011;10808;48.010;11.326;2023-09-19T03:00:39;2.55;;;1.40;;
21297;SDS011;10808;48.010;11.326;2023-09-19T03:03:07;2.80;;;1.20;;
21297;SDS011;10808;48.010;11.326;2023-09-19T03:05:34;2.30;;;1.40;;
21297;SDS011;10808;48.010;11.326;2023-09-19T03:08:00;2.40;;;1.50;;
21297;SDS011;10808;48.010;11.326;2023-09-19T03:10:27;2.22;;;1.40;;
21297;SDS011;10808;48.010;11.326;2023-09-19T03:12:53;2.28;;;1.20;;
21297;SDS011;10808;48.010;11.326;2023-09-19T03:15:19;2.42;;;1.20;;
21297;SDS011;10808;48.010;11.326;2023-09-19T03:17:47;3.17;;;1.40;;
21297;SDS011;10808;48.010;11.326;2023-09-19T03:20:14;2.58;;;1.42;;
21297;SDS011;10808;48.010;11.326;2023-09-19T03:22:44;2.83;;;1.40;;
21297;SDS011;10808;48.010;11.326;2023-09-19T03:25:11;4.80;;;1.50;;
21297;SDS011;10808;48.010;11.326;2023-09-19T03:27:38;4.35;;;1.67;;
21297;SDS011;10808;48.010;11.326;2023-09-19T03:30:05;3.20;;;1.60;;
21297;SDS011;10808;48.010;11.326;2023-09-19T03:32:37;4.45;;;1.40;;
21297;SDS011;10808;48.010;11.326;2023-09-19T03:35:12;4.35;;;1.48;;
21297;SDS011;10808;48.010;11.326;2023-09-19T03:37:40;2.00;;;1.52;;
21297;SDS011;10808;48.010;11.326;2023-09-19T03:40:07;2.70;;;1.40;;
21297;SDS011;10808;48.010;11.326;2023-09-19T03:42:38;2.35;;;1.13;;
21297;SDS011;10808;48.010;11.326;2023-09-19T03:45:06;2.00;;;1.30;;
21297;SDS011;10808;48.010;11.326;2023-09-19T03:47:35;2.00;;;1.30;;
21297;SDS011;10808;48.010;11.326;2023-09-19T03:50:02;2.72;;;1.30;;
21297;SDS011;10808;48.010;11.326;2023-09-19T03:52:28;1.30;;;1.00;;
21297;SDS011;10808;48.010;11.326;2023-09-19T03:54:54;3.07;;;1.50;;
21297;SDS011;10808;48.010;11.326;2023-09-19T03:57:20;2.77;;;1.30;;
21297;SDS011;10808;48.010;11.326;2023-09-19T03:59:46;2.00;;;1.30;;
21297;SDS011;10808;48.010;11.326;2023-09-19T04:02:13;2.25;;;1.50;;
21297;SDS011;10808;48.010;11.326;2023-09-19T04:04:48;2.85;;;1.50;;
21297;SDS011;10808;48.010;11.326;2023-09-19T04:07:14;1.90;;;1.27;;
21297;SDS011;10808;48.010;11.326;2023-09-19T04:09:40;4.35;;;1.30;;
21297;SDS011;10808;48.010;11.326;2023-09-19T04:12:07;2.13;;;1.20;;
21297;SDS011;10808;48.010;11.326;2023-09-19T04:14:36;1.55;;;1.10;;
21297;SDS011;10808;48.010;11.326;2023-09-19T04:17:03;2.17;;;1.25;;
21297;SDS011;10808;48.010;11.326;2023-09-19T04:19:30;2.30;;;1.10;;
21297;SDS011;10808;48.010;11.326;2023-09-19T04:21:56;3.05;;;1.38;;
21297;SDS011;10808;48.010;11.326;2023-09-19T04:24:22;1.80;;;1.20;;
21297;SDS011;10808;48.010;11.326;2023-09-19T04:26:48;1.20;;;1.05;;
21297;SDS011;10808;48.010;11.326;2023-09-19T04:29:15;1.50;;;1.23;;
21297;SDS011;10808;48.010;11.326;2023-09-19T04:31:41;1.60;;;1.17;;
21297;SDS011;10808;48.010;11.326;2023-09-19T04:34:09;1.90;;;1.00;;
21297;SDS011;10808;48.010;11.326;2023-09-19T04:36:35;2.00;;;1.30;;
21297;SDS011;10808;48.010;11.326;2023-09-19T04:39:02;1.40;;;1.08;;
21297;SDS011;10808;48.010;11.326;2023-09-19T04:41:33;1.38;;;1.10;;
21297;SDS011;10808;48.010;11.326;2023-09-19T04:43:59;2.38;;;1.27;;
21297;SDS011;10808;48.010;11.326;2023-09-19T04:46:26;1.77;;;1.08;;
21297;SDS011;10808;48.010;11.326;2023-09-19T04:48:52;2.20;;;1.15;;
21297;SDS011;10808;48.010;11.326;2023-09-19T04:51:18;1.85;;;1.30;;
21297;SDS011;10808;48.010;11.326;2023-09-19T04:53:46;2.15;;;1.00;;
21297;SDS011;10808;48.010;11.326;2023-09-19T04:56:13;1.23;;;1.10;;
21297;SDS011;10808;48.010;11.326;2023-09-19T04:58:39;1.35;;;1.00;;
21297;SDS011;10808;48.010;11.326;2023-09-19T05:01:05;1.85;;;1.00;;
21297;SDS011;10808;48.010;11.326;2023-09-19T05:03:31;2.50;;;1.10;;
21297;SDS011;10808;48.010;11.326;2023-09-19T05:05:57;1.90;;;1.23;;
21297;SDS011;10808;48.010;11.326;2023-09-19T05:08:23;2.60;;;1.20;;
21297;SDS011;10808;48.010;11.326;2023-09-19T05:10:50;2.20;;;1.00;;
21297;SDS011;10808;48.010;11.326;2023-09-19T05:13:16;2.97;;;1.03;;
21297;SDS011;10808;48.010;11.326;2023-09-19T05:15:42;1.43;;;1.10;;
21297;SDS011;10808;48.010;11.326;2023-09-19T05:18:08;1.77;;;1.10;;
21297;SDS011;10808;48.010;11.326;2023-09-19T05:20:36;1.60;;;1.08;;
21297;SDS011;10808;48.010;11.326;2023-09-19T05:23:05;1.60;;;1.20;;
21297;SDS011;10808;48.010;11.326;2023-09-19T05:25:39;2.45;;;1.20;;
21297;SDS011;10808;48.010;11.326;2023-09-19T05:28:06;2.90;;;1.25;;
21297;SDS011;10808;48.010;11.326;2023-09-19T05:30:32;2.22;;;1.20;;
21297;SDS011;10808;48.010;11.326;2023-09-19T05:33:04;1.77;;;1.10;;
21297;SDS011;10808;48.010;11.326;2023-09-19T05:35:31;1.40;;;1.00;;
21297;SDS011;10808;48.010;11.326;2023-09-19T05:37:57;1.75;;;1.20;;
21297;SDS011;10808;48.010;11.326;2023-09-19T05:40:23;1.42;;;1.10;;
21297;SDS011;10808;48.010;11.326;2023-09-19T05:42:50;2.30;;;1.20;;
21297;SDS011;10808;48.010;11.326;2023-09-19T05:45:17;2.53;;;1.15;;
21297;SDS011;10808;48.010;11.326;2023-09-19T05:47:48;2.10;;;1.20;;
21297;SDS011;10808;48.010;11.326;2023-09-19T05:50:15;2.27;;;1.20;;
21297;SDS011;10808;48.010;11.326;2023-09-19T05:52:42;2.35;;;1.08;;
21297;SDS011;10808;48.010;11.326;2023-09-19T05:55:11;2.40;;;1.40;;
21297;SDS011;10808;48.010;11.326;2023-09-19T05:57:37;1.50;;;0.95;;
21297;SDS011;10808;48.010;11.326;2023-09-19T06:00:09;2.08;;;1.10;;
21297;SDS011;10808;48.010;11.326;2023-09-19T06:02:37;1.58;;;1.10;;
21297;SDS011;10808;48.010;11.326;2023-09-19T06:05:04;2.47;;;1.17;;
21297;SDS011;10808;48.010;11.326;2023-09-19T06:07:34;3.50;;;1.30;;
21297;SDS011;10808;48.010;11.326;2023-09-19T06:10:03;1.52;;;1.10;;
21297;SDS011;10808;48.010;11.326;2023-09-19T06:12:31;1.75;;;1.20;;
21297;SDS011;10808;48.010;11.326;2023-09-19T06:15:00;2.38;;;1.10;;
21297;SDS011;10808;48.010;11.326;2023-09-19T06:17:26;1.73;;;1.10;;
21297;SDS011;10808;48.010;11.326;2023-09-19T06:19:53;3.85;;;1.20;;
21297;SDS011;10808;48.010;11.326;2023-09-19T06:22:19;1.90;;;1.20;;
21297;SDS011;10808;48.010;11.326;2023-09-19T06:24:45;2.13;;;1.05;;
21297;SDS011;10808;48.010;11.326;2023-09-19T06:27:12;2.08;;;1.20;;
21297;SDS011;10808;48.010;11.326;2023-09-19T06:29:39;5.50;;;1.08;;
21297;SDS011;10808;48.010;11.326;2023-09-19T06:32:08;2.78;;;1.15;;
21297;SDS011;10808;48.010;11.326;2023-09-19T06:34:35;1.70;;;1.20;;
21297;SDS011;10808;48.010;11.326;2023-09-19T06:37:04;1.55;;;1.10;;
21297;SDS011;10808;48.010;11.326;2023-09-19T06:39:31;1.40;;;1.00;;
21297;SDS011;10808;48.010;11.326;2023-09-19T06:41:58;1.92;;;1.23;;
21297;SDS011;10808;48.010;11.326;2023-09-19T06:44:25;4.88;;;1.25;;
21297;SDS011;10808;48.010;11.326;2023-09-19T06:46:51;1.92;;;1.20;;
21297;SDS011;10808;48.010;11.326;2023-09-19T06:49:17;1.88;;;1.30;;
21297;SDS011;10808;48.010;11.326;2023-09-19T06:51:43;4.18;;;1.40;;
21297;SDS011;10808;48.010;11.326;2023-09-19T06:54:10;1.98;;;1.20;;
21297;SDS011;10808;48.010;11.326;2023-09-19T06:56:36;1.85;;;1.20;;
21297;SDS011;10808;48.010;11.326;2023-09-19T06:59:02;1.73;;;1.10;;
21297;SDS011;10808;48.010;11.326;2023-09-19T07:01:31;2.63;;;1.15;;
21297;SDS011;10808;48.010;11.326;2023-09-19T07:03:57;1.88;;;1.10;;
21297;SDS011;10808;48.010;11.326;2023-09-19T07:06:23;2.43;;;1.17;;
21297;SDS011;10808;48.010;11.326;2023-09-19T07:08:49;2.10;;;1.10;;
21297;SDS011;10808;48.010;11.326;2023-09-19T07:11:15;2.30;;;1.10;;
21297;SDS011;10808;48.010;11.326;2023-09-19T07:13:42;2.60;;;1.13;;
21297;SDS011;10808;48.010;11.326;2023-09-19T07:16:08;2.33;;;1.35;;
21297;SDS011;10808;48.010;11.326;2023-09-19T07:18:52;1.50;;;1.10;;
21297;SDS011;10808;48.010;11.326;2023-09-19T07:21:22;2.28;;;1.20;;
21297;SDS011;10808;48.010;11.326;2023-09-19T07:23:49;2.17;;;1.52;;
21297;SDS011;10808;48.010;11.326;2023-09-19T07:26:15;3.13;;;1.27;;
21297;SDS011;10808;48.010;11.326;2023-09-19T07:28:42;1.83;;;1.15;;
21297;SDS011;10808;48.010;11.326;2023-09-19T07:31:08;2.87;;;1.37;;
21297;SDS011;10808;48.010;11.326;2023-09-19T07:33:34;4.05;;;1.05;;
21297;SDS011;10808;48.010;11.326;2023-09-19T07:36:01;2.80;;;1.10;;
21297;SDS011;10808;48.010;11.326;2023-09-19T07:38:27;1.85;;;1.13;;
21297;SDS011;10808;48.010;11.326;2023-09-19T07:40:59;1.40;;;1.20;;
21297;SDS011;10808;48.010;11.326;2023-09-19T07:43:26;1.70;;;1.10;;
21297;SDS011;10808;48.010;11.326;2023-09-19T07:45:52;2.55;;;1.10;;
21297;SDS011;10808;48.010;11.326;2023-09-19T07:48:18;2.53;;;1.00;;
21297;SDS011;10808;48.010;11.326;2023-09-19T07:50:44;1.93;;;1.27;;
21297;SDS011;10808;48.010;11.326;2023-09-19T07:53:11;2.10;;;1.10;;
21297;SDS011;10808;48.010;11.326;2023-09-19T07:55:39;1.70;;;1.10;;
21297;SDS011;10808;48.010;11.326;2023-09-19T07:58:06;3.40;;;1.10;;
21297;SDS011;10808;48.010;11.326;2023-09-19T08:00:32;2.05;;;1.13;;
21297;SDS011;10808;48.010;11.326;2023-09-19T08:03:00;2.15;;;1.20;;
21297;SDS011;10808;48.010;11.326;2023-09-19T08:05:28;1.52;;;1.08;;
21297;SDS011;10808;48.010;11.326;2023-09-19T08:07:54;3.72;;;1.20;;
21297;SDS011;10808;48.010;11.326;2023-09-19T08:10:21;2.40;;;1.20;;
21297;SDS011;10808;48.010;11.326;2023-09-19T08:12:48;1.38;;;1.10;;
21297;SDS011;10808;48.010;11.326;2023-09-19T08:15:21;1.80;;;1.00;;
21297;SDS011;10808;48.010;11.326;2023-09-19T08:17:48;1.60;;;1.20;;
21297;SDS011;10808;48.010;11.326;2023-09-19T08:20:14;1.70;;;1.08;;
21297;SDS011;10808;48.010;11.326;2023-09-19T08:22:47;1.27;;;1.10;;
21297;SDS011;10808;48.010;11.326;2023-09-19T08:25:15;1.93;;;1.00;;
21297;SDS011;10808;48.010;11.326;2023-09-19T08:27:47;1.77;;;1.10;;
21297;SDS011;10808;48.010;11.326;2023-09-19T08:30:15;1.85;;;1.10;;
21297;SDS011;10808;48.010;11.326;2023-09-19T08:32:41;1.83;;;1.00;;
21297;SDS011;10808;48.010;11.326;2023-09-19T08:35:08;1.80;;;1.00;;
21297;SDS011;10808;48.010;11.326;2023-09-19T08:37:35;8.35;;;1.30;;
21297;SDS011;10808;48.010;11.326;2023-09-19T08:40:01;2.17;;;1.17;;
21297;SDS011;10808;48.010;11.326;2023-09-19T08:42:28;1.45;;;1.10;;
21297;SDS011;10808;48.010;11.326;2023-09-19T08:44:55;1.87;;;0.90;;
21297;SDS011;10808;48.010;11.326;2023-09-19T08:47:29;1.50;;;1.00;;
21297;SDS011;10808;48.010;11.326;2023-09-19T08:50:11;1.35;;;1.00;;
21297;SDS011;10808;48.010;11.326;2023-09-19T08:52:51;1.52;;;0.95;;
21297;SDS011;10808;48.010;11.326;2023-09-19T08:55:20;1.77;;;0.95;;
21297;SDS011;10808;48.010;11.326;2023-09-19T08:57:52;1.00;;;0.90;;
21297;SDS011;10808;48.010;11.326;2023-09-19T09:00:25;0.87;;;0.80;;
21297;SDS011;10808;48.010;11.326;2023-09-19T09:02:53;2.28;;;1.10;;
21297;SDS011;10808;48.010;11.326;2023-09-19T09:05:21;1.30;;;0.80;;
21297;SDS011;10808;48.010;11.326;2023-09-19T09:07:49;2.10;;;0.90;;
21297;SDS011;10808;48.010;11.326;2023-09-19T09:10:18;2.10;;;1.00;;
21297;SDS011;10808;48.010;11.326;2023-09-19T09:12:57;2.58;;;1.00;;
21297;SDS011;10808;48.010;11.326;2023-09-19T09:15:24;1.02;;;0.82;;
21297;SDS011;10808;48.010;11.326;2023-09-19T09:17:51;2.90;;;0.98;;
21297;SDS011;10808;48.010;11.326;2023-09-19T09:20:19;2.85;;;1.17;;
21297;SDS011;10808;48.010;11.326;2023-09-19T09:22:51;1.67;;;0.93;;
21297;SDS011;10808;48.010;11.326;2023-09-19T09:25:20;2.85;;;1.20;;
21297;SDS011;10808;48.010;11.326;2023-09-19T09:28:02;1.85;;;0.90;;
21297;SDS011;10808;48.010;11.326;2023-09-19T09:30:37;1.17;;;0.93;;
21297;SDS011;10808;48.010;11.326;2023-09-19T09:33:07;1.00;;;0.90;;
21297;SDS011;10808;48.010;11.326;2023-09-19T09:35:37;2.90;;;1.20;;
21297;SDS011;10808;48.010;11.326;2023-09-19T09:38:12;2.67;;;1.10;;
21297;SDS011;10808;48.010;11.326;2023-09-19T09:40:45;3.30;;;1.20;;
21297;SDS011;10808;48.010;11.326;2023-09-19T09:43:29;1.30;;;0.90;;
21297;SDS011;10808;48.010;11.326;2023-09-19T09:46:16;3.58;;;1.20;;
21297;SDS011;10808;48.010;11.326;2023-09-19T09:48:56;2.95;;;1.10;;
21297;SDS011;10808;48.010;11.326;2023-09-19T09:51:51;2.30;;;1.15;;
21297;SDS011;10808;48.010;11.326;2023-09-19T09:54:58;1.40;;;1.10;;
21297;SDS011;10808;48.010;11.326;2023-09-19T09:57:34;1.70;;;1.10;;
21297;SDS011;10808;48.010;11.326;2023-09-19T10:00:00;2.25;;;1.20;;
21297;SDS011;10808;48.010;11.326;2023-09-19T10:02:39;2.90;;;1.10;;
21297;SDS011;10808;48.010;11.326;2023-09-19T10:05:16;2.60;;;1.60;;
21297;SDS011;10808;48.010;11.326;2023-09-19T10:07:46;1.38;;;1.20;;
21297;SDS011;10808;48.010;11.326;2023-09-19T10:10:32;1.58;;;1.08;;
21297;SDS011;10808;48.010;11.326;2023-09-19T10:13:08;2.73;;;1.10;;
21297;SDS011;10808;48.010;11.326;2023-09-19T10:15:44;2.03;;;1.20;;
21297;SDS011;10808;48.010;11.326;2023-09-19T10:18:24;2.67;;;1.30;;
21297;SDS011;10808;48.010;11.326;2023-09-19T10:20:53;3.05;;;1.33;;
21297;SDS011;10808;48.010;11.326;2023-09-19T10:23:20;4.13;;;1.33;;
21297;SDS011;10808;48.010;11.326;2023-09-19T10:25:51;2.90;;;1.40;;
21297;SDS011;10808;48.010;11.326;2023-09-19T10:28:19;1.73;;;1.30;;
21297;SDS011;10808;48.010;11.326;2023-09-19T10:30:49;2.20;;;1.40;;
21297;SDS011;10808;48.010;11.326;2023-09-19T10:33:18;2.00;;;1.10;;
21297;SDS011;10808;48.010;11.326;2023-09-19T10:35:47;2.33;;;1.30;;
21297;SDS011;10808;48.010;11.326;2023-09-19T10:38:16;2.00;;;1.17;;
21297;SDS011;10808;48.010;11.326;2023-09-19T10:40:50;3.70;;;1.30;;
21297;SDS011;10808;48.010;11.326;2023-09-19T10:43:18;2.17;;;1.25;;
21297;SDS011;10808;48.010;11.326;2023-09-19T10:45:47;1.50;;;1.10;;
21297;SDS011;10808;48.010;11.326;2023-09-19T10:48:15;2.58;;;1.05;;
21297;SDS011;10808;48.010;11.326;2023-09-19T10:50:53;1.52;;;1.00;;
21297;SDS011;10808;48.010;11.326;2023-09-19T10:53:25;2.00;;;1.30;;
21297;SDS011;10808;48.010;11.326;2023-09-19T10:55:55;1.50;;;1.00;;
21297;SDS011;10808;48.010;11.326;2023-09-19T10:58:30;1.65;;;1.00;;
21297;SDS011;10808;48.010;11.326;2023-09-19T11:01:00;1.90;;;0.90;;
21297;SDS011;10808;48.010;11.326;2023-09-19T11:03:38;1.60;;;1.02;;
21297;SDS011;10808;48.010;11.326;2023-09-19T11:06:09;3.13;;;1.10;;
21297;SDS011;10808;48.010;11.326;2023-09-19T11:08:57;1.60;;;0.90;;
21297;SDS011;10808;48.010;11.326;2023-09-19T11:11:40;2.25;;;1.00;;
21297;SDS011;10808;48.010;11.326;2023-09-19T11:30:32;2.40;;;1.00;;
21297;SDS011;10808;48.010;11.326;2023-09-19T11:46:52;1.23;;;0.88;;
21297;SDS011;10808;48.010;11.326;2023-09-19T11:49:26;2.20;;;1.13;;
21297;SDS011;10808;48.010;11.326;2023-09-19T11:51:57;2.33;;;0.93;;
21297;SDS011;10808;48.010;11.326;2023-09-19T11:54:30;1.67;;;1.00;;
21297;SDS011;10808;48.010;11.326;2023-09-19T11:56:57;3.30;;;1.17;;
21297;SDS011;10808;48.010;11.326;2023-09-19T11:59:25;1.52;;;1.10;;
21297;SDS011;10808;48.010;11.326;2023-09-19T12:01:55;1.30;;;1.00;;
21297;SDS011;10808;48.010;11.326;2023-09-19T12:04:41;1.80;;;0.90;;
21297;SDS011;10808;48.010;11.326;2023-09-19T12:07:11;1.75;;;0.90;;
21297;SDS011;10808;48.010;11.326;2023-09-19T12:09:45;1.42;;;0.93;;
21297;SDS011;10808;48.010;11.326;2023-09-19T12:12:23;1.25;;;0.93;;
21297;SDS011;10808;48.010;11.326;2023-09-19T12:14:53;1.13;;;0.98;;
21297;SDS011;10808;48.010;11.326;2023-09-19T12:17:20;1.48;;;1.00;;
21297;SDS011;10808;48.010;11.326;2023-09-19T12:19:50;1.85;;;0.90;;
21297;SDS011;10808;48.010;11.326;2023-09-19T12:22:17;1.52;;;1.00;;
21297;SDS011;10808;48.010;11.326;2023-09-19T12:24:45;1.30;;;1.00;;
21297;SDS011;10808;48.010;11.326;2023-09-19T12:27:12;1.50;;;1.10;;
21297;SDS011;10808;48.010;11.326;2023-09-19T12:29:48;0.82;;;0.82;;
21297;SDS011;10808;48.010;11.326;2023-09-19T12:32:15;1.20;;;0.93;;
21297;SDS011;10808;48.010;11.326;2023-09-19T12:34:53;1.67;;;0.95;;
21297;SDS011;10808;48.010;11.326;2023-09-19T12:37:20;1.45;;;1.10;;
21297;SDS011;10808;48.010;11.326;2023-09-19T12:39:53;1.50;;;0.80;;
21297;SDS011;10808;48.010;11.326;2023-09-19T12:42:40;1.00;;;0.90;;
21297;SDS011;10808;48.010;11.326;2023-09-19T12:45:07;2.30;;;0.93;;
21297;SDS011;10808;48.010;11.326;2023-09-19T12:47:36;2.13;;;1.00;;
21297;SDS011;10808;48.010;11.326;2023-09-19T12:50:15;1.17;;;0.90;;
21297;SDS011;10808;48.010;11.326;2023-09-19T12:52:51;1.20;;;0.82;;
21297;SDS011;10808;48.010;11.326;2023-09-19T12:57:56;0.93;;;0.82;;
21297;SDS011;10808;48.010;11.326;2023-09-19T13:00:33;1.50;;;1.00;;
21297;SDS011;10808;48.010;11.326;2023-09-19T13:06:00;1.48;;;1.10;;
21297;SDS011;10808;48.010;11.326;2023-09-19T13:08:34;2.28;;;1.00;;
21297;SDS011;10808;48.010;11.326;2023-09-19T13:11:07;1.10;;;0.90;;
21297;SDS011;10808;48.010;11.326;2023-09-19T13:13:48;0.93;;;0.80;;
21297;SDS011;10808;48.010;11.326;2023-09-19T13:16:20;1.40;;;1.07;;
21297;SDS011;10808;48.010;11.326;2023-09-19T13:18:51;1.35;;;0.90;;
21297;SDS011;10808;48.010;11.326;2023-09-19T13:21:32;1.00;;;0.80;;
21297;SDS011;10808;48.010;11.326;2023-09-19T13:27:09;1.38;;;1.00;;
21297;SDS011;10808;48.010;11.326;2023-09-19T13:29:35;2.15;;;0.93;;
21297;SDS011;10808;48.010;11.326;2023-09-19T13:32:01;1.63;;;1.08;;
21297;SDS011;10808;48.010;11.326;2023-09-19T13:34:28;1.60;;;0.90;;
21297;SDS011;10808;48.010;11.326;2023-09-19T13:36:54;1.40;;;1.08;;
21297;SDS011;10808;48.010;11.326;2023-09-19T13:39:20;1.73;;;1.00;;
21297;SDS011;10808;48.010;11.326;2023-09-19T13:41:50;1.40;;;0.97;;
21297;SDS011;10808;48.010;11.326;2023-09-19T13:44:16;0.90;;;0.85;;
21297;SDS011;10808;48.010;11.326;2023-09-19T13:46:42;2.00;;;0.87;;
21297;SDS011;10808;48.010;11.326;2023-09-19T13:49:11;2.08;;;0.82;;
21297;SDS011;10808;48.010;11.326;2023-09-19T13:51:37;1.25;;;0.80;;
21297;SDS011;10808;48.010;11.326;2023-09-19T13:54:03;1.10;;;0.80;;
21297;SDS011;10808;48.010;11.326;2023-09-19T13:56:29;1.00;;;0.80;;
21297;SDS011;10808;48.010;11.326;2023-09-19T13:58:57;2.10;;;0.82;;
21297;SDS011;10808;48.010;11.326;2023-09-19T14:01:23;1.20;;;0.80;;
21297;SDS011;10808;48.010;11.326;2023-09-19T14:03:49;2.97;;;1.00;;
21297;SDS011;10808;48.010;11.326;2023-09-19T14:06:16;0.80;;;0.80;;
21297;SDS011;10808;48.010;11.326;2023-09-19T14:08:43;2.00;;;0.70;;
21297;SDS011;10808;48.010;11.326;2023-09-19T14:11:13;1.38;;;0.80;;
21297;SDS011;10808;48.010;11.326;2023-09-19T14:13:40;0.60;;;0.60;;
21297;SDS011;10808;48.010;11.326;2023-09-19T14:16:06;0.73;;;0.73;;
21297;SDS011;10808;48.010;11.326;2023-09-19T14:18:34;0.80;;;0.80;;
21297;SDS011;10808;48.010;11.326;2023-09-19T14:21:03;1.60;;;0.70;;
21297;SDS011;10808;48.010;11.326;2023-09-19T14:23:34;1.08;;;0.70;;
21297;SDS011;10808;48.010;11.326;2023-09-19T14:26:04;0.98;;;0.70;;
21297;SDS011;10808;48.010;11.326;2023-09-19T14:28:31;1.10;;;0.70;;
21297;SDS011;10808;48.010;11.326;2023-09-19T14:31:06;0.75;;;0.68;;
21297;SDS011;10808;48.010;11.326;2023-09-19T14:33:36;1.50;;;0.60;;
21297;SDS011;10808;48.010;11.326;2023-09-19T14:36:04;0.90;;;0.70;;
21297;SDS011;10808;48.010;11.326;2023-09-19T14:38:33;0.80;;;0.75;;
21297;SDS011;10808;48.010;11.326;2023-09-19T14:41:01;0.70;;;0.70;;
21297;SDS011;10808;48.010;11.326;2023-09-19T14:43:28;0.88;;;0.70;;
21297;SDS011;10808;48.010;11.326;2023-09-19T14:45:56;1.70;;;0.70;;
21297;SDS011;10808;48.010;11.326;2023-09-19T14:48:25;1.20;;;0.60;;
21297;SDS011;10808;48.010;11.326;2023-09-19T14:50:52;1.33;;;0.70;;
21297;SDS011;10808;48.010;11.326;2023-09-19T14:53:19;1.50;;;0.88;;
21297;SDS011;10808;48.010;11.326;2023-09-19T14:55:45;0.70;;;0.70;;
21297;SDS011;10808;48.010;11.326;2023-09-19T14:58:13;1.50;;;0.70;;
21297;SDS011;10808;48.010;11.326;2023-09-19T15:00:39;0.77;;;0.60;;
21297;SDS011;10808;48.010;11.326;2023-09-19T15:03:05;2.72;;;0.75;;
21297;SDS011;10808;48.010;11.326;2023-09-19T15:05:31;1.20;;;0.75;;
21297;SDS011;10808;48.010;11.326;2023-09-19T15:07:59;1.90;;;0.90;;
21297;SDS011;10808;48.010;11.326;2023-09-19T15:10:25;1.00;;;0.70;;
21297;SDS011;10808;48.010;11.326;2023-09-19T15:12:51;1.10;;;0.70;;
21297;SDS011;10808;48.010;11.326;2023-09-19T15:15:17;1.70;;;0.90;;
21297;SDS011;10808;48.010;11.326;2023-09-19T15:17:43;2.00;;;0.80;;
21297;SDS011;10808;48.010;11.326;2023-09-19T15:20:09;1.30;;;0.70;;
21297;SDS011;10808;48.010;11.326;2023-09-19T15:22:39;1.75;;;0.75;;
21297;SDS011;10808;48.010;11.326;2023-09-19T15:25:06;1.40;;;0.70;;
21297;SDS011;10808;48.010;11.326;2023-09-19T15:27:32;1.30;;;0.90;;
21297;SDS011;10808;48.010;11.326;2023-09-19T15:30:01;1.48;;;0.80;;
21297;SDS011;10808;48.010;11.326;2023-09-19T15:32:28;1.67;;;0.90;;
21297;SDS011;10808;48.010;11.326;2023-09-19T15:34:54;1.20;;;0.90;;
21297;SDS011;10808;48.010;11.326;2023-09-19T15:37:20;1.07;;;0.70;;
21297;SDS011;10808;48.010;11.326;2023-09-19T15:39:47;0.88;;;0.80;;
21297;SDS011;10808;48.010;11.326;2023-09-19T15:42:14;1.40;;;1.00;;